Time;durP1;ratioP1;P1;durP2;ratioP2;P2;SDS_P1;SDS_P2;PMS_P1;PMS_P2;Temp;Humidity;BMP_temperature;BMP_pressure;BME280_temperature;BME280_humidity;BME280_pressure;Samples;Min_cycle;Max_cycle;Signal;HPM_P1;HPM_P2
2021/03/19 00:01:07;;;;;;;23.23;18.25;;;5.00;99.90;;;;;;5073880;28;20192;-45
2021/03/19 00:03:33;;;;;;;22.98;17.65;;;5.30;99.90;;;;;;5073826;28;20734;-45
2021/03/19 00:06:00;;;;;;;21.00;18.48;;;5.00;99.90;;;;;;5074279;28;20236;-45
2021/03/19 00:08:26;;;;;;;19.90;16.95;;;4.80;99.90;;;;;;5074197;28;20238;-46
2021/03/19 00:10:53;;;;;;;20.05;17.77;;;5.20;99.90;;;;;;5074563;28;20207;-45
2021/03/19 00:13:20;;;;;;;21.42;19.13;;;5.20;99.90;;;;;;5073685;28;20195;-45
2021/03/19 00:15:46;;;;;;;21.73;17.83;;;5.00;99.90;;;;;;5074381;28;20230;-45
2021/03/19 00:18:14;;;;;;;22.85;19.25;;;5.10;99.90;;;;;;5056292;28;20202;-45
2021/03/19 00:20:44;;;;;;;20.42;18.05;;;4.90;99.90;;;;;;5073835;28;20191;-46
2021/03/19 00:23:11;;;;;;;25.67;19.25;;;5.00;99.90;;;;;;5073468;28;20195;-45
2021/03/19 00:25:37;;;;;;;24.05;18.77;;;4.80;99.90;;;;;;5073825;28;20202;-45
2021/03/19 00:28:05;;;;;;;23.20;19.83;;;4.70;99.90;;;;;;5074074;28;20215;-45
2021/03/19 00:30:33;;;;;;;23.48;19.13;;;5.20;99.90;;;;;;5073711;28;20282;-45
2021/03/19 00:33:00;;;;;;;23.05;20.45;;;5.20;99.90;;;;;;5073330;28;20658;-45
2021/03/19 00:35:26;;;;;;;23.35;19.83;;;5.20;99.90;;;;;;5073524;28;20413;-45
2021/03/19 00:37:52;;;;;;;26.98;20.80;;;5.10;99.90;;;;;;5073591;28;20271;-45
2021/03/19 00:40:19;;;;;;;24.48;20.17;;;5.00;99.90;;;;;;5073598;28;20195;-44
2021/03/19 00:42:46;;;;;;;25.23;20.65;;;5.30;99.90;;;;;;5074263;28;20279;-44
2021/03/19 00:45:14;;;;;;;24.95;21.02;;;4.90;99.90;;;;;;5075938;28;20230;-45
2021/03/19 00:47:41;;;;;;;25.52;20.35;;;4.80;99.90;;;;;;5075682;28;20203;-45
2021/03/19 00:50:11;;;;;;;30.45;23.30;;;5.20;99.90;;;;;;5074879;28;20248;-45
2021/03/19 00:52:37;;;;;;;29.55;22.35;;;5.00;99.90;;;;;;5073252;28;20192;-45
2021/03/19 00:55:06;;;;;;;27.50;20.90;;;5.10;99.90;;;;;;5073137;28;20219;-45
2021/03/19 00:57:32;;;;;;;29.88;22.58;;;4.90;99.90;;;;;;5073065;28;20226;-45
2021/03/19 00:59:58;;;;;;;27.65;22.27;;;4.70;99.90;;;;;;5073487;28;20191;-45
2021/03/19 01:02:24;;;;;;;28.08;21.52;;;4.60;99.90;;;;;;5072632;28;20234;-45
2021/03/19 01:04:52;;;;;;;28.50;21.15;;;5.00;99.90;;;;;;5073031;28;20230;-45
2021/03/19 01:07:18;;;;;;;25.98;19.95;;;4.40;99.90;;;;;;5073152;28;20739;-45
2021/03/19 01:09:44;;;;;;;25.20;19.50;;;4.50;99.90;;;;;;5073003;28;20231;-45
2021/03/19 01:12:11;;;;;;;24.33;19.05;;;4.40;99.90;;;;;;5073426;28;20195;-44
2021/03/19 01:14:38;;;;;;;24.17;18.75;;;4.40;99.90;;;;;;5072702;28;20215;-45
2021/03/19 01:17:04;;;;;;;26.60;19.13;;;4.70;99.90;;;;;;5072746;28;20191;-44
2021/03/19 01:19:30;;;;;;;24.70;17.98;;;4.70;99.90;;;;;;5072754;28;20187;-45
2021/03/19 01:21:57;;;;;;;21.23;15.52;;;4.70;99.90;;;;;;5072825;28;20192;-45
2021/03/19 01:24:24;;;;;;;20.40;15.70;;;4.50;99.90;;;;;;5072887;28;20221;-45
2021/03/19 01:26:50;;;;;;;22.42;16.45;;;4.30;99.90;;;;;;5072799;28;20195;-45
2021/03/19 01:29:16;;;;;;;21.55;16.05;;;4.60;99.90;;;;;;5072679;28;20211;-45
2021/03/19 01:31:43;;;;;;;20.75;15.13;;;4.30;99.90;;;;;;5072382;28;20187;-45
2021/03/19 01:34:09;;;;;;;21.73;15.43;;;4.10;99.90;;;;;;5072155;28;20246;-44
2021/03/19 01:36:35;;;;;;;23.95;15.02;;;4.10;99.90;;;;;;5072385;28;20187;-44
2021/03/19 01:39:03;;;;;;;22.17;13.70;;;3.60;99.90;;;;;;5072437;28;20587;-44
2021/03/19 01:41:29;;;;;;;17.58;13.30;;;4.30;99.90;;;;;;5054380;28;20202;-45
2021/03/19 01:43:56;;;;;;;16.00;11.43;;;4.40;99.90;;;;;;5072286;28;20501;-45
2021/03/19 01:47:00;;;;;;;16.85;12.75;;;3.90;99.90;;;;;;5072053;28;20683;-45
2021/03/19 01:50:03;;;;;;;16.25;11.38;;;3.90;99.90;;;;;;5072196;28;20219;-45
2021/03/19 01:53:07;;;;;;;16.48;11.13;;;3.90;99.90;;;;;;5071708;28;20207;-45
2021/03/19 01:56:10;;;;;;;16.02;11.00;;;3.60;99.90;;;;;;5072120;28;20596;-45
2021/03/19 01:59:14;;;;;;;16.05;12.15;;;4.00;99.90;;;;;;5071898;28;20187;-45
2021/03/19 02:02:17;;;;;;;21.52;14.07;;;3.90;99.90;;;;;;5072598;28;20192;-45
2021/03/19 02:05:21;;;;;;;23.20;13.00;;;3.80;99.90;;;;;;5072095;28;20227;-45
2021/03/19 02:08:24;;;;;;;26.65;16.35;;;3.80;99.90;;;;;;5072193;28;20683;-45
2021/03/19 02:11:28;;;;;;;30.92;16.48;;;3.70;99.90;;;;;;5072209;28;20698;-44
2021/03/19 02:14:31;;;;;;;34.10;17.80;;;3.80;99.90;;;;;;5071590;28;20234;-45
2021/03/19 02:17:35;;;;;;;31.25;16.15;;;3.90;99.90;;;;;;5072080;28;20210;-45
2021/03/19 02:20:39;;;;;;;30.13;14.70;;;3.60;99.90;;;;;;5071852;28;20674;-44
2021/03/19 02:23:43;;;;;;;26.92;15.52;;;3.40;99.90;;;;;;5071502;28;20218;-44
2021/03/19 02:26:46;;;;;;;33.75;16.20;;;3.60;99.90;;;;;;5071762;28;20225;-45
2021/03/19 02:29:50;;;;;;;25.88;14.23;;;3.60;99.90;;;;;;5071747;28;20215;-45
2021/03/19 02:32:19;;;;;;;43.47;16.13;;;3.70;99.90;;;;;;5071517;28;20203;-44
2021/03/19 02:34:49;;;;;;;28.45;15.77;;;3.80;99.90;;;;;;5071515;28;20207;-45
2021/03/19 02:37:18;;;;;;;32.13;17.02;;;3.60;99.90;;;;;;5071740;28;20708;-45
2021/03/19 02:39:45;;;;;;;27.77;15.82;;;3.80;99.90;;;;;;5071727;28;20781;-45
2021/03/19 02:42:13;;;;;;;26.15;15.20;;;3.40;99.90;;;;;;5071577;28;20223;-45
2021/03/19 02:44:41;;;;;;;34.90;19.23;;;3.20;99.90;;;;;;5071258;28;20230;-45
2021/03/19 02:47:08;;;;;;;33.15;18.38;;;3.50;99.90;;;;;;5071497;28;20278;-45
2021/03/19 02:49:35;;;;;;;28.55;17.95;;;3.50;99.90;;;;;;5071587;28;20646;-44
2021/03/19 02:52:02;;;;;;;28.63;14.70;;;3.40;99.90;;;;;;5072893;28;20556;-44
2021/03/19 02:54:28;;;;;;;33.92;17.48;;;3.40;99.90;;;;;;5071996;28;20242;-44
2021/03/19 02:56:54;;;;;;;30.10;17.45;;;3.60;99.90;;;;;;5072465;28;20199;-44
2021/03/19 02:59:21;;;;;;;39.58;19.70;;;3.30;99.90;;;;;;5073709;28;20206;-44
2021/03/19 03:01:47;;;;;;;38.92;19.27;;;3.40;99.90;;;;;;5073192;28;20195;-44
2021/03/19 03:04:15;;;;;;;35.63;17.40;;;3.40;99.90;;;;;;5070375;22;20281;-48
2021/03/19 03:06:46;;;;;;;35.55;18.33;;;3.30;99.90;;;;;;5051639;28;20671;-48
2021/03/19 03:09:15;;;;;;;41.75;19.60;;;3.50;99.90;;;;;;5052064;28;20303;-48
2021/03/19 03:11:42;;;;;;;45.60;20.23;;;3.70;99.90;;;;;;5051385;28;20219;-48
2021/03/19 03:14:11;;;;;;;41.75;20.58;;;3.10;99.90;;;;;;5050984;28;20273;-48
2021/03/19 03:16:38;;;;;;;46.55;18.58;;;3.30;99.90;;;;;;5051371;28;20188;-48
2021/03/19 03:19:06;;;;;;;43.70;22.20;;;3.50;99.90;;;;;;5051299;28;20665;-48
2021/03/19 03:21:32;;;;;;;47.75;20.65;;;3.30;99.90;;;;;;5051478;28;20220;-48
2021/03/19 03:24:00;;;;;;;35.78;19.77;;;3.20;99.90;;;;;;5050863;28;20704;-48
2021/03/19 03:26:26;;;;;;;35.55;17.25;;;3.30;99.90;;;;;;5051394;28;20568;-49
2021/03/19 03:28:52;;;;;;;42.80;19.65;;;3.50;99.90;;;;;;5033687;28;20231;-48
2021/03/19 03:31:18;;;;;;;46.90;20.90;;;3.30;99.90;;;;;;5051300;28;20226;-47
2021/03/19 03:33:45;;;;;;;46.05;22.73;;;3.30;99.90;;;;;;5050882;28;20235;-48
2021/03/19 03:36:11;;;;;;;37.70;20.58;;;3.20;99.90;;;;;;5052325;28;20254;-48
2021/03/19 03:38:37;;;;;;;45.47;21.52;;;3.40;99.90;;;;;;5054042;28;20672;-48
2021/03/19 03:41:08;;;;;;;48.85;22.58;;;3.30;99.90;;;;;;5053636;28;20257;-48
2021/03/19 03:43:35;;;;;;;55.00;22.88;;;3.30;99.90;;;;;;5036810;28;20545;-48
2021/03/19 03:46:02;;;;;;;49.95;23.45;;;3.40;99.90;;;;;;5054804;28;20661;-47
2021/03/19 03:48:32;;;;;;;51.35;24.40;;;3.20;99.90;;;;;;5036922;28;20365;-48
2021/03/19 03:51:01;;;;;;;59.60;22.73;;;3.00;99.90;;;;;;5054928;28;20195;-47
2021/03/19 03:53:27;;;;;;;40.80;22.10;;;3.00;99.90;;;;;;5055213;28;20196;-47
2021/03/19 03:55:54;;;;;;;47.35;24.42;;;3.00;99.90;;;;;;5055390;28;20223;-47
2021/03/19 03:58:21;;;;;;;51.70;24.98;;;3.00;99.90;;;;;;5055471;28;20195;-48
2021/03/19 04:00:47;;;;;;;47.92;24.13;;;3.40;99.90;;;;;;5054536;28;20192;-48
2021/03/19 04:03:14;;;;;;;54.35;25.60;;;2.90;99.90;;;;;;5054250;28;20192;-48
2021/03/19 04:05:43;;;;;;;52.30;23.98;;;2.10;99.90;;;;;;5054181;28;20231;-48
2021/03/19 04:08:12;;;;;;;47.38;22.77;;;2.80;99.90;;;;;;5054311;28;20255;-48
2021/03/19 04:10:39;;;;;;;55.20;24.23;;;2.70;99.90;;;;;;5054336;28;20234;-48
2021/03/19 04:13:07;;;;;;;62.13;26.38;;;2.80;99.90;;;;;;5053940;28;20203;-48
2021/03/19 04:15:34;;;;;;;57.20;24.60;;;2.70;99.90;;;;;;5054068;28;20220;-48
2021/03/19 04:18:03;;;;;;;50.33;24.92;;;2.70;99.90;;;;;;5054158;28;20220;-48
2021/03/19 04:20:30;;;;;;;54.88;24.83;;;2.80;99.90;;;;;;5054489;28;20275;-48
2021/03/19 04:22:56;;;;;;;46.08;21.95;;;2.60;99.90;;;;;;5036299;28;20196;-48
2021/03/19 04:25:23;;;;;;;51.78;23.85;;;2.90;99.90;;;;;;5036069;28;20232;-48
2021/03/19 04:27:53;;;;;;;59.20;26.13;;;2.00;99.90;;;;;;5036378;28;20516;-47
2021/03/19 04:30:22;;;;;;;48.90;24.35;;;2.60;99.90;;;;;;5054646;28;20192;-46
2021/03/19 04:32:50;;;;;;;50.65;23.75;;;2.40;99.90;;;;;;5054520;28;20196;-46
2021/03/19 04:35:19;;;;;;;45.65;22.45;;;2.60;99.90;;;;;;5055670;28;20270;-48
2021/03/19 04:37:46;;;;;;;53.85;23.73;;;2.60;99.90;;;;;;5055112;28;20657;-46
2021/03/19 04:40:14;;;;;;;46.03;22.65;;;2.60;99.90;;;;;;5055362;28;20577;-46
2021/03/19 04:42:40;;;;;;;53.85;25.00;;;2.60;99.90;;;;;;5055037;28;20284;-46
2021/03/19 04:45:09;;;;;;;44.00;27.10;;;2.60;99.90;;;;;;5053865;28;20254;-47
2021/03/19 04:47:35;;;;;;;46.50;26.25;;;2.60;99.90;;;;;;5052810;28;20194;-47
2021/03/19 04:50:03;;;;;;;53.45;27.05;;;2.40;99.90;;;;;;5053514;28;20269;-48
2021/03/19 04:52:30;;;;;;;49.78;27.42;;;2.50;99.90;;;;;;5053248;28;20196;-48
2021/03/19 04:54:56;;;;;;;50.50;24.55;;;3.00;99.90;;;;;;5053151;28;20264;-48
2021/03/19 04:57:22;;;;;;;48.33;25.23;;;2.30;99.90;;;;;;5053442;28;20250;-48
2021/03/19 04:59:49;;;;;;;42.25;24.48;;;2.70;99.90;;;;;;5053214;28;20195;-48
2021/03/19 05:02:16;;;;;;;42.92;23.70;;;2.40;99.90;;;;;;5053410;28;20200;-49
2021/03/19 05:04:42;;;;;;;43.00;23.60;;;2.50;99.90;;;;;;5053138;28;20387;-49
2021/03/19 05:07:09;;;;;;;45.00;23.85;;;2.80;99.90;;;;;;5053242;28;20249;-48
2021/03/19 05:09:36;;;;;;;39.80;23.35;;;2.90;99.90;;;;;;5053103;28;20225;-48
2021/03/19 05:12:04;;;;;;;42.30;22.38;;;2.70;99.90;;;;;;5035077;28;20235;-48
2021/03/19 05:14:31;;;;;;;43.60;22.95;;;2.60;99.90;;;;;;5052573;28;20216;-49
2021/03/19 05:16:58;;;;;;;42.42;20.10;;;2.60;99.90;;;;;;5052973;28;20254;-48
2021/03/19 05:19:25;;;;;;;40.95;22.35;;;2.10;99.90;;;;;;5035059;28;20472;-49
2021/03/19 05:21:51;;;;;;;37.53;20.73;;;2.70;99.90;;;;;;5052763;28;20202;-49
2021/03/19 05:24:18;;;;;;;35.63;20.85;;;2.50;99.90;;;;;;5052144;28;20248;-48
2021/03/19 05:26:44;;;;;;;34.45;21.17;;;2.60;99.90;;;;;;5052419;28;20192;-49
2021/03/19 05:29:12;;;;;;;33.58;20.27;;;2.50;99.90;;;;;;5052204;28;20298;-48
2021/03/19 05:31:40;;;;;;;41.63;22.63;;;2.60;99.90;;;;;;5052559;28;20192;-49
2021/03/19 05:34:07;;;;;;;37.45;22.15;;;2.70;99.90;;;;;;5052034;28;20212;-48
2021/03/19 05:36:34;;;;;;;33.65;20.15;;;2.30;99.90;;;;;;5053161;28;20195;-49
2021/03/19 05:39:01;;;;;;;43.28;21.98;;;2.80;99.90;;;;;;5053010;28;20192;-48
2021/03/19 05:41:32;;;;;;;38.15;21.23;;;2.90;99.90;;;;;;5052211;28;20722;-47
2021/03/19 05:44:02;;;;;;;34.63;21.08;;;2.90;99.90;;;;;;5052002;28;20212;-48
2021/03/19 05:46:32;;;;;;;32.97;19.33;;;2.90;99.90;;;;;;5052617;28;20192;-48
2021/03/19 05:49:01;;;;;;;32.70;19.27;;;2.80;99.90;;;;;;5052771;28;20222;-48
2021/03/19 05:51:35;;;;;;;36.90;20.83;;;3.10;99.90;;;;;;5034401;28;20216;-48
2021/03/19 05:54:13;;;;;;;38.58;19.73;;;2.80;99.90;;;;;;5052439;28;20223;-49
2021/03/19 05:56:41;;;;;;;39.83;23.40;;;3.10;99.90;;;;;;5052635;28;20195;-48
2021/03/19 05:59:08;;;;;;;36.13;22.27;;;3.00;99.90;;;;;;5052151;28;20230;-48
2021/03/19 06:01:35;;;;;;;31.48;20.05;;;2.80;99.90;;;;;;5052028;28;20196;-49
2021/03/19 06:04:03;;;;;;;30.15;19.88;;;2.50;99.90;;;;;;5051761;28;20227;-48
2021/03/19 06:06:46;;;;;;;37.70;20.65;;;2.60;99.90;;;;;;5051898;28;20196;-48
2021/03/19 06:09:30;;;;;;;35.70;22.42;;;2.60;99.90;;;;;;5052024;28;20277;-47
2021/03/19 06:12:01;;;;;;;33.70;20.98;;;2.70;99.90;;;;;;5052127;28;20191;-47
2021/03/19 06:14:30;;;;;;;30.75;18.90;;;2.60;99.90;;;;;;5051787;28;20212;-48
2021/03/19 06:17:07;;;;;;;30.60;19.17;;;2.50;99.90;;;;;;5052241;28;20200;-48
2021/03/19 06:19:37;;;;;;;40.63;21.55;;;2.50;99.90;;;;;;5051902;28;20202;-48
2021/03/19 06:22:21;;;;;;;30.35;19.95;;;2.70;99.90;;;;;;5051293;28;20289;-46
2021/03/19 06:24:55;;;;;;;33.47;21.23;;;2.80;99.90;;;;;;5052026;28;20306;-48
2021/03/19 06:27:26;;;;;;;33.55;20.25;;;2.80;99.90;;;;;;5034033;28;20707;-48
2021/03/19 06:29:56;;;;;;;31.73;20.00;;;2.50;99.90;;;;;;5034255;28;20692;-49
2021/03/19 06:32:26;;;;;;;32.60;21.67;;;2.90;99.90;;;;;;5051979;28;20204;-48
2021/03/19 06:34:59;;;;;;;30.90;20.00;;;2.00;99.90;;;;;;5052199;28;20223;-47
2021/03/19 06:37:28;;;;;;;30.00;19.25;;;2.60;99.90;;;;;;5052183;28;20207;-47
2021/03/19 06:39:57;;;;;;;29.23;19.98;;;2.90;99.90;;;;;;5051755;28;20196;-48
2021/03/19 06:42:34;;;;;;;35.00;20.95;;;2.80;99.90;;;;;;5052062;28;20206;-47
2021/03/19 06:45:12;;;;;;;31.10;20.13;;;2.80;99.90;;;;;;5052248;28;20226;-47
2021/03/19 06:47:41;;;;;;;28.45;20.33;;;2.80;99.90;;;;;;5052281;28;20258;-49
2021/03/19 06:50:11;;;;;;;32.13;19.85;;;3.00;99.90;;;;;;5052083;28;20222;-48
2021/03/19 06:52:38;;;;;;;27.42;17.73;;;3.30;99.90;;;;;;5052114;28;20250;-50
2021/03/19 06:55:07;;;;;;;23.08;16.80;;;3.10;99.90;;;;;;5052188;28;20302;-48
2021/03/19 06:57:45;;;;;;;34.10;19.52;;;3.10;99.90;;;;;;5051726;28;20200;-47
2021/03/19 07:00:13;;;;;;;25.70;17.08;;;3.00;99.90;;;;;;5051914;28;20195;-48
2021/03/19 07:02:58;;;;;;;27.33;17.42;;;3.60;99.90;;;;;;5051522;28;20188;-48
2021/03/19 07:06:11;;;;;;;26.80;18.15;;;2.70;99.90;;;;;;5051123;28;20708;-47
2021/03/19 07:08:43;;;;;;;21.73;16.17;;;3.40;99.90;;;;;;5050595;28;20219;-49
2021/03/19 07:11:52;;;;;;;21.75;16.52;;;3.40;99.90;;;;;;5053101;28;20192;-47
2021/03/19 07:14:55;;;;;;;23.92;15.90;;;3.40;99.90;;;;;;4973493;28;20234;-47
2021/03/19 07:17:45;;;;;;;24.58;16.52;;;3.50;99.90;;;;;;4973910;28;20720;-48
2021/03/19 07:20:23;;;;;;;22.77;15.02;;;3.70;99.90;;;;;;5029122;28;20206;-49
2021/03/19 07:22:59;;;;;;;19.27;13.48;;;4.00;99.90;;;;;;5054819;28;20208;-49
2021/03/19 07:25:39;;;;;;;21.80;16.50;;;4.10;99.90;;;;;;5054671;28;20223;-49
2021/03/19 07:28:21;;;;;;;23.25;17.33;;;3.50;99.90;;;;;;5036694;28;20219;-49
2021/03/19 07:31:02;;;;;;;26.48;18.52;;;3.80;99.90;;;;;;5055207;28;20192;-49
2021/03/19 07:33:51;;;;;;;23.20;16.77;;;3.50;99.90;;;;;;5054337;28;20672;-48
2021/03/19 07:36:29;;;;;;;25.40;17.70;;;3.50;99.90;;;;;;5054447;28;20200;-49
2021/03/19 07:39:39;;;;;;;24.05;19.33;;;3.50;99.90;;;;;;5054730;28;20196;-48
2021/03/19 07:42:38;;;;;;;21.90;16.50;;;3.60;99.90;;;;;;5054788;28;20208;-48
2021/03/19 07:45:15;;;;;;;26.25;16.55;;;3.40;99.90;;;;;;5049433;28;20235;-47
2021/03/19 07:48:09;;;;;;;21.75;17.23;;;3.50;99.90;;;;;;5054761;28;20219;-49
2021/03/19 07:50:42;;;;;;;20.80;16.80;;;3.50;99.90;;;;;;5021617;28;20574;-49
2021/03/19 07:53:32;;;;;;;20.83;16.38;;;3.40;99.90;;;;;;5054479;28;20203;-48
2021/03/19 07:56:02;;;;;;;17.50;14.10;;;3.50;99.90;;;;;;5055158;28;20723;-50
2021/03/19 07:58:44;;;;;;;19.60;14.50;;;3.80;99.90;;;;;;5054719;28;20272;-48
2021/03/19 08:01:19;;;;;;;17.33;13.65;;;3.70;99.90;;;;;;5054269;28;20219;-49
2021/03/19 08:03:49;;;;;;;17.27;12.05;;;3.60;99.90;;;;;;5053542;28;20196;-48
2021/03/19 08:06:22;;;;;;;19.20;14.27;;;3.50;99.90;;;;;;5053472;28;20215;-49
2021/03/19 08:08:57;;;;;;;19.50;15.15;;;3.50;99.90;;;;;;5053608;28;20234;-48
2021/03/19 08:11:30;;;;;;;22.90;14.73;;;3.60;99.90;;;;;;5053754;28;20260;-48
2021/03/19 08:14:08;;;;;;;20.33;15.30;;;3.50;99.90;;;;;;5053704;28;20226;-50
2021/03/19 08:16:41;;;;;;;20.40;14.40;;;3.70;99.90;;;;;;5054230;28;20253;-47
2021/03/19 08:19:27;;;;;;;25.65;14.27;;;3.50;99.90;;;;;;5052794;28;20199;-49
2021/03/19 08:22:01;;;;;;;21.02;12.95;;;3.80;99.90;;;;;;5053707;28;20200;-48
2021/03/19 08:24:41;;;;;;;18.40;12.50;;;3.90;99.90;;;;;;5053428;28;20264;-48
2021/03/19 08:27:14;;;;;;;23.60;15.25;;;4.00;99.90;;;;;;5053747;28;20202;-46
2021/03/19 08:29:54;;;;;;;20.38;14.57;;;4.00;99.90;;;;;;5053299;28;20216;-48
2021/03/19 08:32:33;;;;;;;21.15;13.45;;;4.10;99.90;;;;;;5053234;28;20280;-50
2021/03/19 08:35:11;;;;;;;16.77;13.35;;;4.00;99.90;;;;;;5053590;28;20630;-48
2021/03/19 08:37:46;;;;;;;20.48;14.00;;;4.00;99.90;;;;;;5053478;28;20660;-48
2021/03/19 08:40:23;;;;;;;21.35;13.73;;;4.00;99.90;;;;;;5053154;28;20269;-49
2021/03/19 08:42:52;;;;;;;21.90;13.93;;;4.00;99.90;;;;;;5052915;28;20203;-46
2021/03/19 08:45:22;;;;;;;17.55;13.57;;;4.00;99.90;;;;;;5053967;28;20352;-49
2021/03/19 08:47:56;;;;;;;13.75;11.88;;;3.80;99.90;;;;;;5053545;28;20199;-49
2021/03/19 08:50:35;;;;;;;19.15;12.68;;;3.60;99.90;;;;;;5053883;28;20224;-49
2021/03/19 08:53:06;;;;;;;16.38;11.85;;;3.60;99.90;;;;;;5053385;28;20578;-48
2021/03/19 08:55:34;;;;;;;18.20;12.57;;;3.70;99.90;;;;;;5053355;28;20220;-49
2021/03/19 08:58:34;;;;;;;19.75;12.35;;;3.70;99.90;;;;;;5053716;28;20237;-49
2021/03/19 09:01:03;;;;;;;18.38;13.07;;;3.70;99.90;;;;;;5053415;28;20637;-48
2021/03/19 09:03:53;;;;;;;19.90;13.30;;;3.60;99.90;;;;;;5053156;28;20235;-49
2021/03/19 09:06:27;;;;;;;19.35;13.10;;;3.30;99.90;;;;;;5076070;22;20741;-44
2021/03/19 09:09:14;;;;;;;17.45;12.60;;;3.60;99.90;;;;;;5034440;28;20671;-45
2021/03/19 09:12:04;;;;;;;17.27;11.48;;;3.70;99.90;;;;;;5053295;28;20250;-45
2021/03/19 09:14:36;;;;;;;20.63;12.65;;;3.70;99.90;;;;;;5043012;28;20593;-45
2021/03/19 09:17:03;;;;;;;16.98;12.68;;;3.70;99.90;;;;;;5053513;28;20317;-43
2021/03/19 09:19:59;;;;;;;16.92;11.63;;;3.90;99.90;;;;;;5053834;28;20188;-45
2021/03/19 09:22:37;;;;;;;17.50;12.70;;;4.00;99.90;;;;;;5040058;28;20653;-46
2021/03/19 09:25:46;;;;;;;14.63;11.65;;;4.30;99.90;;;;;;5052750;28;20723;-45
2021/03/19 09:28:36;;;;;;;15.13;11.60;;;4.50;99.90;;;;;;5053527;28;20623;-44
2021/03/19 09:31:30;;;;;;;13.10;10.60;;;4.40;99.90;;;;;;5035102;28;20644;-44
2021/03/19 09:34:10;;;;;;;9.50;7.97;;;4.30;99.90;;;;;;5051457;28;20266;-46
2021/03/19 09:37:31;;;;;;;12.60;9.60;;;4.50;99.90;;;;;;5052767;28;20270;-46
2021/03/19 09:40:14;;;;;;;9.23;7.45;;;4.70;99.90;;;;;;5055068;28;20196;-45
2021/03/19 09:42:58;;;;;;;8.45;7.05;;;4.50;99.90;;;;;;5055248;28;20575;-45
2021/03/19 09:45:34;;;;;;;9.20;7.15;;;4.70;99.90;;;;;;5034347;28;20230;-45
2021/03/19 09:48:13;;;;;;;10.05;7.80;;;4.50;99.90;;;;;;5052759;28;20204;-45
2021/03/19 09:54:41;;;;;;;7.00;6.30;;;4.40;99.90;;;;;;5052796;28;20206;-44
2021/03/19 09:57:27;;;;;;;10.00;7.07;;;4.80;99.90;;;;;;5052103;28;20656;-44
2021/03/19 09:59:58;;;;;;;10.05;6.88;;;4.60;99.90;;;;;;5052360;28;20191;-46
2021/03/19 10:02:29;;;;;;;6.80;5.53;;;4.40;99.90;;;;;;5051342;28;20606;-46
2021/03/19 10:05:08;;;;;;;8.70;5.95;;;4.50;99.90;;;;;;5052021;28;20637;-45
2021/03/19 10:07:35;;;;;;;6.63;5.90;;;4.60;99.90;;;;;;5052054;28;20191;-44
2021/03/19 10:10:03;;;;;;;7.30;6.07;;;5.00;99.90;;;;;;5052039;28;20306;-45
2021/03/19 10:12:34;;;;;;;7.60;5.63;;;4.90;99.90;;;;;;5051431;28;20192;-45
2021/03/19 10:15:14;;;;;;;14.13;8.85;;;5.20;99.90;;;;;;5051715;28;20212;-46
2021/03/19 10:17:49;;;;;;;7.47;5.50;;;5.30;99.90;;;;;;5052436;28;20192;-45
2021/03/19 10:20:30;;;;;;;6.53;4.65;;;4.80;99.90;;;;;;5052154;28;20645;-44
2021/03/19 10:23:11;;;;;;;8.70;5.18;;;4.80;99.90;;;;;;5051837;28;20196;-44
2021/03/19 10:25:40;;;;;;;6.38;4.80;;;4.90;99.90;;;;;;5052039;28;20219;-43
2021/03/19 10:28:18;;;;;;;6.35;5.70;;;4.80;99.90;;;;;;5052637;28;20196;-44
2021/03/19 10:30:51;;;;;;;8.63;5.38;;;4.70;99.90;;;;;;5034555;28;20231;-45
2021/03/19 10:33:22;;;;;;;8.07;4.80;;;5.10;99.90;;;;;;5052747;28;20196;-45
2021/03/19 10:35:56;;;;;;;6.15;4.65;;;5.10;99.90;;;;;;5053080;28;20235;-45
2021/03/19 10:38:29;;;;;;;4.78;3.42;;;5.30;99.90;;;;;;5052691;28;20624;-44
2021/03/19 10:41:01;;;;;;;6.38;3.92;;;5.30;99.90;;;;;;5052115;28;20575;-45
2021/03/19 10:43:35;;;;;;;4.57;3.75;;;5.40;99.90;;;;;;5051017;28;20207;-45
2021/03/19 10:46:13;;;;;;;3.58;2.72;;;5.70;99.90;;;;;;5037213;28;20717;-45
2021/03/19 10:48:44;;;;;;;5.75;3.28;;;5.50;99.90;;;;;;5055818;28;20660;-44
2021/03/19 10:51:35;;;;;;;5.68;3.33;;;5.30;99.90;;;;;;5056303;28;20216;-44
2021/03/19 10:54:07;;;;;;;4.32;2.72;;;5.70;99.90;;;;;;5055452;28;20212;-44
2021/03/19 10:56:34;;;;;;;6.35;3.15;;;6.00;99.90;;;;;;5055805;28;20318;-45
2021/03/19 10:59:14;;;;;;;4.57;3.17;;;5.90;99.90;;;;;;5055894;28;20191;-46
2021/03/19 11:01:45;;;;;;;5.03;2.70;;;5.80;99.90;;;;;;5056926;28;20199;-45
2021/03/19 11:04:34;;;;;;;4.80;3.30;;;6.00;99.90;;;;;;5055359;28;20199;-45
2021/03/19 11:07:16;;;;;;;7.18;3.00;;;5.80;99.90;;;;;;5055952;28;20552;-45
2021/03/19 11:10:02;;;;;;;6.57;3.03;;;5.80;99.90;;;;;;5057701;28;20669;-46
2021/03/19 11:12:32;;;;;;;8.98;2.65;;;5.80;99.90;;;;;;5057446;28;20195;-44
2021/03/19 11:15:03;;;;;;;10.90;6.72;;;6.30;99.90;;;;;;5057583;28;20217;-45
2021/03/19 11:17:30;;;;;;;5.60;3.33;;;6.20;99.90;;;;;;5058736;28;20250;-45
2021/03/19 11:19:58;;;;;;;3.67;2.75;;;5.90;99.90;;;;;;5056824;28;20462;-45
2021/03/19 11:22:34;;;;;;;5.00;2.65;;;6.00;99.90;;;;;;5056542;28;20270;-45
2021/03/19 11:25:21;;;;;;;4.53;2.38;;;5.80;99.90;;;;;;5055310;28;20609;-45
2021/03/19 11:27:49;;;;;;;4.90;2.10;;;5.60;99.90;;;;;;5055425;28;20199;-46
2021/03/19 11:30:29;;;;;;;3.40;2.20;;;4.80;99.90;;;;;;5055770;28;20280;-46
2021/03/19 11:33:02;;;;;;;2.28;1.73;;;5.30;99.90;;;;;;5039697;28;20249;-46
2021/03/19 11:35:29;;;;;;;4.18;1.80;;;4.80;99.90;;;;;;5058560;28;20629;-45
2021/03/19 11:37:55;;;;;;;3.50;1.75;;;5.20;99.90;;;;;;5058675;28;20215;-45
2021/03/19 11:40:38;;;;;;;5.45;2.10;;;5.40;99.90;;;;;;5058546;28;20227;-45
2021/03/19 11:43:06;;;;;;;2.50;1.65;;;5.60;99.90;;;;;;5058160;28;20226;-46
2021/03/19 11:45:38;;;;;;;3.20;2.15;;;5.40;99.90;;;;;;5059687;28;20212;-45
2021/03/19 11:51:51;;;;;;;4.97;1.90;;;5.80;99.90;;;;;;5059384;28;20202;-44
2021/03/19 11:54:18;;;;;;;2.60;1.80;;;5.90;99.90;;;;;;5057065;28;20212;-43
2021/03/19 11:56:46;;;;;;;3.55;1.85;;;5.70;99.10;;;;;;5040468;28;20719;-45
2021/03/19 11:59:15;;;;;;;5.55;2.70;;;5.80;98.70;;;;;;5058227;28;20250;-45
2021/03/19 12:01:43;;;;;;;4.20;1.73;;;5.10;98.30;;;;;;5057831;28;20196;-45
2021/03/19 12:04:17;;;;;;;2.13;1.85;;;5.70;98.50;;;;;;5057613;28;20200;-45
2021/03/19 12:06:44;;;;;;;3.83;2.03;;;5.80;98.70;;;;;;5056250;28;20203;-45
2021/03/19 12:09:11;;;;;;;4.35;2.05;;;5.60;98.80;;;;;;5038041;28;20301;-45
2021/03/19 12:11:40;;;;;;;6.18;1.65;;;5.90;98.20;;;;;;5056984;28;20250;-44
2021/03/19 12:14:15;;;;;;;3.23;1.83;;;6.10;97.40;;;;;;5038241;28;20199;-45
2021/03/19 12:16:43;;;;;;;3.40;1.83;;;5.80;97.30;;;;;;5056379;28;20458;-45
2021/03/19 12:19:11;;;;;;;2.60;1.95;;;6.00;97.70;;;;;;5055817;28;20446;-45
2021/03/19 12:21:38;;;;;;;5.70;1.70;;;6.10;96.00;;;;;;5057035;28;20278;-46
2021/03/19 12:24:05;;;;;;;1.93;1.53;;;5.90;95.30;;;;;;5037547;28;20215;-45
2021/03/19 12:26:32;;;;;;;4.37;2.07;;;5.80;95.30;;;;;;5038451;28;20501;-44
2021/03/19 12:28:59;;;;;;;2.70;1.80;;;5.50;95.30;;;;;;5055872;28;20470;-44
2021/03/19 12:31:26;;;;;;;3.13;2.83;;;5.90;96.00;;;;;;5057459;28;20466;-44
2021/03/19 12:33:53;;;;;;;2.17;1.53;;;5.90;94.90;;;;;;5053698;28;20802;-44
2021/03/19 12:36:20;;;;;;;3.33;1.73;;;5.70;94.70;;;;;;5054680;28;20454;-45
2021/03/19 12:38:47;;;;;;;5.45;1.45;;;5.90;94.50;;;;;;5053672;28;20196;-45
2021/03/19 12:41:14;;;;;;;3.80;1.70;;;5.30;93.30;;;;;;5053342;28;20192;-45
2021/03/19 12:43:41;;;;;;;1.75;1.33;;;5.70;93.70;;;;;;5052740;28;20202;-45
2021/03/19 12:46:08;;;;;;;3.85;1.83;;;5.60;92.90;;;;;;5053213;28;20550;-46
2021/03/19 12:48:35;;;;;;;3.53;1.77;;;5.50;93.20;;;;;;5053467;28;20230;-46
2021/03/19 12:51:03;;;;;;;4.55;1.98;;;5.60;92.80;;;;;;5053153;28;20430;-45
2021/03/19 12:53:34;;;;;;;2.20;1.40;;;5.50;92.70;;;;;;5053547;28;20249;-46
2021/03/19 12:56:05;;;;;;;3.65;2.20;;;5.60;92.20;;;;;;5053397;28;20219;-45
2021/03/19 12:58:32;;;;;;;3.75;1.70;;;5.80;92.80;;;;;;5053308;28;20192;-46
2021/03/19 13:00:58;;;;;;;4.10;1.70;;;5.70;92.50;;;;;;5053242;28;20266;-46
2021/03/19 13:03:26;;;;;;;2.83;1.80;;;5.40;92.70;;;;;;5052895;28;20208;-46
2021/03/19 13:05:53;;;;;;;2.63;1.75;;;5.70;92.70;;;;;;5053226;28;20982;-46
2021/03/19 13:08:21;;;;;;;3.30;1.70;;;5.70;92.70;;;;;;5052772;28;20291;-46
2021/03/19 13:10:47;;;;;;;2.00;1.60;;;5.90;92.80;;;;;;5053019;28;20527;-46
2021/03/19 13:13:14;;;;;;;6.57;2.50;;;5.90;92.70;;;;;;5052387;28;20541;-46
2021/03/19 13:15:41;;;;;;;2.88;1.80;;;5.90;93.40;;;;;;5053285;28;20549;-47
2021/03/19 13:18:08;;;;;;;5.77;2.50;;;6.00;92.00;;;;;;5052658;28;20188;-46
2021/03/19 13:20:35;;;;;;;4.38;2.03;;;6.20;92.20;;;;;;5052497;28;20434;-45
2021/03/19 13:23:03;;;;;;;2.05;1.48;;;5.90;90.90;;;;;;5052610;28;20208;-45